createdAt,value
2018-11-04T00:01:36.451Z,89.68
2018-11-04T00:04:05.068Z,89.22
2018-11-04T00:06:33.672Z,89.91
2018-11-04T00:09:02.390Z,89.92
2018-11-04T00:11:31.049Z,89.56
2018-11-04T00:13:59.862Z,89.40
2018-11-04T00:16:28.512Z,89.26
2018-11-04T00:18:57.257Z,89.16
2018-11-04T00:21:25.998Z,89.54
2018-11-04T00:23:54.801Z,89.25
2018-11-04T00:26:23.527Z,88.97
2018-11-04T00:28:52.161Z,88.89
2018-11-04T00:31:20.729Z,88.92
2018-11-04T00:33:49.365Z,88.76
2018-11-04T00:36:18.129Z,88.83
2018-11-04T00:38:46.737Z,89.26
2018-11-04T00:41:15.352Z,89.25
2018-11-04T00:43:43.998Z,89.63
2018-11-04T00:46:12.546Z,89.48
2018-11-04T00:48:41.401Z,89.55
2018-11-04T00:51:10.060Z,89.86
2018-11-04T00:53:39.129Z,89.80
2018-11-04T00:56:07.813Z,90.23
2018-11-04T00:58:36.535Z,89.05
2018-11-04T01:01:05.797Z,89.39
2018-11-04T01:03:34.398Z,88.95
2018-11-04T01:06:03.385Z,87.94
2018-11-04T01:08:32.064Z,88.17
2018-11-04T01:11:00.758Z,89.10
2018-11-04T01:13:29.448Z,89.90
2018-11-04T01:15:58.029Z,89.41
2018-11-04T01:18:26.889Z,90.48
2018-11-04T01:20:55.470Z,90.08
2018-11-04T01:23:24.073Z,89.69
2018-11-04T01:25:52.684Z,89.11
2018-11-04T01:28:21.297Z,89.04
2018-11-04T01:30:49.889Z,89.87
2018-11-04T01:33:18.472Z,89.68
2018-11-04T01:35:47.142Z,89.61
2018-11-04T01:38:15.701Z,89.76
2018-11-04T01:40:44.248Z,90.01
2018-11-04T01:43:12.865Z,90.61
2018-11-04T01:45:41.497Z,90.40
2018-11-04T01:48:10.049Z,90.18
2018-11-04T01:50:38.677Z,89.61
2018-11-04T01:53:07.305Z,90.34
2018-11-04T01:55:35.872Z,90.07
2018-11-04T01:58:04.425Z,90.09
2018-11-04T02:00:33.080Z,89.37
2018-11-04T02:03:01.616Z,89.26
2018-11-04T02:05:30.307Z,90.03
2018-11-04T02:07:58.972Z,89.11
2018-11-04T02:10:27.582Z,89.09
2018-11-04T02:12:56.260Z,89.18
2018-11-04T02:15:24.865Z,89.21
2018-11-04T02:17:53.396Z,89.13
2018-11-04T02:20:22.404Z,89.96
2018-11-04T02:22:50.993Z,89.72
2018-11-04T02:25:19.805Z,89.65
2018-11-04T02:27:48.304Z,89.48
2018-11-04T02:30:17.754Z,88.97
2018-11-04T02:32:46.966Z,89.51
2018-11-04T02:35:16.273Z,88.44
2018-11-04T02:37:45.164Z,88.59
2018-11-04T02:40:14.073Z,88.23
2018-11-04T02:42:42.696Z,87.73
2018-11-04T02:45:11.968Z,88.00
2018-11-04T02:47:40.755Z,87.98
2018-11-04T02:50:10.360Z,88.07
2018-11-04T02:52:39.484Z,88.20
2018-11-04T02:55:08.713Z,87.88
2018-11-04T02:57:37.733Z,88.01
2018-11-04T03:00:08.736Z,88.07
2018-11-04T03:02:37.517Z,88.37
2018-11-04T03:05:07.257Z,88.46
2018-11-04T03:07:36.287Z,88.78
2018-11-04T03:10:05.167Z,89.22
2018-11-04T03:12:34.091Z,89.21
2018-11-04T03:15:03.200Z,89.36
2018-11-04T03:17:32.001Z,89.39
2018-11-04T03:20:00.908Z,89.59
2018-11-04T03:22:29.628Z,88.93
2018-11-04T03:24:58.530Z,89.20
2018-11-04T03:27:27.286Z,88.75
2018-11-04T03:29:56.212Z,89.10
2018-11-04T03:32:25.009Z,89.48
2018-11-04T03:34:53.730Z,89.34
2018-11-04T03:37:22.937Z,89.62
2018-11-04T03:39:51.745Z,90.11
2018-11-04T03:42:20.544Z,89.81
2018-11-04T03:44:49.426Z,90.39
2018-11-04T03:47:18.331Z,90.31
2018-11-04T03:49:47.088Z,90.23
2018-11-04T03:52:15.854Z,90.42
2018-11-04T03:54:44.649Z,90.78
2018-11-04T03:57:13.433Z,90.08
2018-11-04T03:59:42.249Z,90.20
2018-11-04T04:02:10.949Z,90.30
2018-11-04T04:04:39.661Z,90.40
2018-11-04T04:07:08.504Z,90.17
2018-11-04T04:09:37.340Z,90.19
2018-11-04T04:12:06.965Z,89.28
2018-11-04T04:14:35.762Z,88.21
2018-11-04T04:17:04.493Z,88.94
2018-11-04T04:19:33.262Z,89.26
2018-11-04T04:22:02.080Z,89.18
2018-11-04T04:24:30.777Z,88.73
2018-11-04T04:26:59.543Z,89.03
2018-11-04T04:29:28.466Z,88.65
2018-11-04T04:31:57.268Z,89.83
2018-11-04T04:34:25.962Z,89.48
2018-11-04T04:36:54.768Z,89.76
2018-11-04T04:39:24.269Z,88.77
2018-11-04T04:41:53.185Z,88.65
2018-11-04T04:44:22.002Z,89.17
2018-11-04T04:46:50.785Z,89.43
2018-11-04T04:49:19.517Z,89.61
2018-11-04T04:51:48.287Z,90.53
2018-11-04T04:54:17.086Z,91.12
2018-11-04T04:56:47.843Z,90.38
2018-11-04T04:59:17.228Z,90.61
2018-11-04T05:01:46.437Z,90.21
2018-11-04T05:04:15.778Z,90.10
2018-11-04T05:06:45.004Z,90.30
2018-11-04T05:09:13.905Z,90.21
2018-11-04T05:11:42.766Z,89.61
2018-11-04T05:14:11.470Z,90.35
2018-11-04T05:16:40.290Z,90.54
2018-11-04T05:19:09.194Z,90.71
2018-11-04T05:21:37.872Z,90.79
2018-11-04T05:24:06.776Z,91.32
2018-11-04T05:26:35.545Z,90.74
2018-11-04T05:29:04.911Z,89.96
2018-11-04T05:31:33.578Z,89.80
2018-11-04T05:34:02.492Z,90.72
2018-11-04T05:36:31.073Z,90.90
2018-11-04T05:38:59.636Z,91.01
2018-11-04T05:41:28.225Z,91.02
2018-11-04T05:43:57.009Z,90.69
2018-11-04T05:46:25.636Z,90.02
2018-11-04T05:48:54.409Z,90.74
2018-11-04T05:51:23.049Z,90.39
2018-11-04T05:53:51.804Z,90.78
2018-11-04T05:56:20.429Z,90.47
2018-11-04T05:58:49.073Z,90.76
2018-11-04T06:01:17.598Z,90.45
2018-11-04T06:03:46.241Z,90.71
2018-11-04T06:06:15.061Z,90.09
2018-11-04T06:08:43.773Z,89.91
2018-11-04T06:11:12.456Z,90.03
2018-11-04T06:13:41.273Z,90.23
2018-11-04T06:16:10.093Z,90.63
2018-11-04T06:18:38.901Z,90.72
2018-11-04T06:21:07.801Z,91.01
2018-11-04T06:23:36.392Z,90.52
2018-11-04T06:26:05.211Z,90.84
2018-11-04T06:28:34.073Z,91.11
2018-11-04T06:31:02.708Z,90.66
2018-11-04T06:33:31.309Z,90.57
2018-11-04T06:36:00.058Z,90.64
2018-11-04T06:38:28.780Z,90.52
2018-11-04T06:40:57.421Z,90.52
2018-11-04T06:43:26.036Z,90.45
2018-11-04T06:45:54.703Z,91.03
2018-11-04T06:48:23.287Z,90.21
2018-11-04T06:50:51.940Z,90.73
2018-11-04T06:53:20.505Z,90.44
2018-11-04T06:55:49.147Z,90.71
2018-11-04T06:58:17.665Z,90.62
2018-11-04T07:00:46.293Z,90.28
2018-11-04T07:03:14.884Z,90.96
2018-11-04T07:05:43.528Z,90.80
2018-11-04T07:08:12.100Z,90.18
2018-11-04T07:10:40.860Z,90.05
2018-11-04T07:13:09.525Z,90.08
2018-11-04T07:15:38.091Z,90.53
2018-11-04T07:18:06.778Z,89.81
2018-11-04T07:20:35.468Z,89.47
2018-11-04T07:23:04.092Z,89.25
2018-11-04T07:25:32.995Z,88.88
2018-11-04T07:28:01.618Z,88.94
2018-11-04T07:30:30.256Z,89.37
2018-11-04T07:32:58.861Z,88.89
2018-11-04T07:35:27.516Z,89.08
2018-11-04T07:37:56.169Z,88.38
2018-11-04T07:40:24.845Z,88.81
2018-11-04T07:42:53.413Z,88.86
2018-11-04T07:45:21.997Z,88.60
2018-11-04T07:47:50.630Z,88.71
2018-11-04T07:50:19.241Z,88.24
2018-11-04T07:52:47.890Z,87.72
2018-11-04T07:55:16.528Z,88.48
2018-11-04T07:57:45.150Z,88.25
2018-11-04T08:00:15.409Z,87.92
2018-11-04T08:02:44.425Z,88.75
2018-11-04T08:05:13.593Z,88.94
2018-11-04T08:07:42.552Z,88.94
2018-11-04T08:10:13.433Z,88.29
2018-11-04T08:12:42.092Z,88.46
2018-11-04T08:15:11.490Z,88.15
2018-11-04T08:17:40.750Z,88.69
2018-11-04T08:20:10.113Z,88.58
2018-11-04T08:22:39.113Z,88.86
2018-11-04T08:25:07.704Z,88.79
2018-11-04T08:27:36.441Z,88.84
2018-11-04T08:30:06.080Z,88.90
2018-11-04T08:32:34.720Z,88.50
2018-11-04T08:35:03.379Z,88.70
2018-11-04T08:37:31.964Z,88.40
2018-11-04T08:40:00.698Z,88.04
2018-11-04T08:42:29.301Z,88.05
2018-11-04T08:44:58.128Z,88.25
2018-11-04T08:47:26.688Z,88.28
2018-11-04T08:49:55.197Z,88.36
2018-11-04T08:52:23.851Z,88.17
2018-11-04T08:54:52.422Z,88.55
2018-11-04T08:57:21.082Z,87.97
2018-11-04T08:59:49.699Z,88.12
2018-11-04T09:02:18.284Z,87.07
2018-11-04T09:04:46.964Z,87.61
2018-11-04T09:07:15.675Z,86.89
2018-11-04T09:09:44.497Z,87.77
2018-11-04T09:12:13.124Z,87.35
2018-11-04T09:14:41.937Z,87.59
2018-11-04T09:17:10.537Z,87.18
2018-11-04T09:19:39.105Z,87.06
2018-11-04T09:22:08.315Z,86.72
2018-11-04T09:24:36.952Z,85.66
2018-11-04T09:27:05.792Z,86.26
2018-11-04T09:29:34.428Z,86.32
2018-11-04T09:32:03.492Z,86.23
2018-11-04T09:34:32.070Z,86.67
2018-11-04T09:37:00.664Z,87.03
2018-11-04T09:39:29.357Z,86.28
2018-11-04T09:41:57.940Z,86.22
2018-11-04T09:44:26.504Z,86.71
2018-11-04T09:46:55.185Z,86.99
2018-11-04T09:49:23.886Z,86.11
2018-11-04T09:51:52.676Z,86.78
2018-11-04T09:54:21.301Z,86.44
2018-11-04T09:56:49.919Z,86.96
2018-11-04T09:59:18.701Z,86.15
2018-11-04T10:01:47.271Z,85.73
2018-11-04T10:04:15.969Z,85.92
2018-11-04T10:06:44.566Z,85.51
2018-11-04T10:09:13.148Z,84.92
2018-11-04T10:11:41.945Z,85.30
2018-11-04T10:14:10.501Z,85.25
2018-11-04T10:16:39.352Z,84.35
2018-11-04T10:19:08.053Z,83.19
2018-11-04T10:21:36.658Z,84.03
2018-11-04T10:24:05.822Z,84.62
2018-11-04T10:26:34.425Z,84.12
2018-11-04T10:29:03.163Z,85.17
2018-11-04T10:31:31.943Z,84.92
2018-11-04T10:34:00.654Z,84.18
2018-11-04T10:36:29.216Z,84.02
2018-11-04T10:38:57.959Z,83.39
2018-11-04T10:41:26.653Z,82.55
2018-11-04T10:43:55.193Z,83.30
2018-11-04T10:46:23.939Z,81.96
2018-11-04T10:48:52.584Z,83.23
2018-11-04T10:51:21.205Z,83.75
2018-11-04T10:53:49.844Z,82.76
2018-11-04T10:56:18.656Z,82.48
2018-11-04T10:58:47.439Z,83.00
2018-11-04T11:01:15.956Z,83.71
2018-11-04T11:03:44.591Z,83.43
2018-11-04T11:06:13.240Z,82.90
2018-11-04T11:08:41.880Z,84.65
2018-11-04T11:11:10.945Z,83.15
2018-11-04T11:13:39.503Z,81.61
2018-11-04T11:16:08.094Z,82.41
2018-11-04T11:18:36.708Z,82.67
2018-11-04T11:21:05.448Z,82.79
2018-11-04T11:23:34.056Z,84.06
2018-11-04T11:26:02.709Z,83.38
2018-11-04T11:28:31.420Z,83.68
2018-11-04T11:31:00.027Z,83.31
2018-11-04T11:33:28.713Z,82.48
2018-11-04T11:35:57.401Z,82.88
2018-11-04T11:38:26.174Z,83.67
2018-11-04T11:40:54.880Z,83.32
2018-11-04T11:43:23.594Z,83.32
2018-11-04T11:45:52.133Z,83.87
2018-11-04T11:48:20.764Z,83.83
2018-11-04T11:50:49.339Z,83.47
2018-11-04T11:53:18.084Z,83.21
2018-11-04T11:55:46.770Z,82.56
2018-11-04T11:58:15.364Z,82.78
2018-11-04T12:00:43.957Z,82.93
2018-11-04T12:03:12.516Z,81.96
2018-11-04T12:05:41.103Z,83.21
2018-11-04T12:08:09.757Z,82.42
2018-11-04T12:10:38.324Z,81.50
2018-11-04T12:13:06.928Z,81.76
2018-11-04T12:15:35.746Z,81.99
2018-11-04T12:18:04.453Z,82.83
2018-11-04T12:20:33.201Z,83.21
2018-11-04T12:23:01.801Z,83.80
2018-11-04T12:25:30.464Z,83.64
2018-11-04T12:27:59.159Z,83.16
2018-11-04T12:30:27.858Z,83.41
2018-11-04T12:32:56.414Z,83.88
2018-11-04T12:35:25.131Z,82.69
2018-11-04T12:37:53.620Z,82.91
2018-11-04T12:40:22.147Z,83.17
2018-11-04T12:42:51.380Z,82.77
2018-11-04T12:45:20.053Z,83.49
2018-11-04T12:47:48.760Z,82.19
2018-11-04T12:50:17.365Z,83.31
2018-11-04T12:52:46.056Z,83.83
2018-11-04T12:55:14.837Z,83.08
2018-11-04T12:57:43.381Z,83.23
2018-11-04T13:00:13.973Z,83.69
2018-11-04T13:02:43.505Z,83.10
2018-11-04T13:05:12.137Z,82.72
2018-11-04T13:07:40.788Z,82.83
2018-11-04T13:10:11.392Z,83.44
2018-11-04T13:12:40.244Z,85.51
2018-11-04T13:15:10.408Z,87.02
2018-11-04T13:17:39.172Z,86.97
2018-11-04T13:20:07.865Z,84.79
2018-11-04T13:22:36.577Z,84.05
2018-11-04T13:25:06.001Z,85.08
2018-11-04T13:27:34.725Z,85.27
2018-11-04T13:30:03.563Z,85.97
2018-11-04T13:32:32.361Z,86.27
2018-11-04T13:35:00.940Z,85.45
2018-11-04T13:37:29.696Z,85.13
2018-11-04T13:39:58.252Z,84.34
2018-11-04T13:42:26.889Z,84.17
2018-11-04T13:44:55.432Z,84.62
2018-11-04T13:47:24.046Z,84.75
2018-11-04T13:49:52.688Z,85.79
2018-11-04T13:52:21.310Z,84.59
2018-11-04T13:54:49.897Z,84.98
2018-11-04T13:57:18.608Z,84.73
2018-11-04T13:59:47.136Z,84.58
2018-11-04T14:02:15.793Z,84.64
2018-11-04T14:04:44.370Z,85.10
2018-11-04T14:07:12.919Z,85.96
2018-11-04T14:09:41.624Z,85.75
2018-11-04T14:12:10.188Z,86.06
2018-11-04T14:14:39.043Z,86.05
2018-11-04T14:17:07.682Z,86.13
2018-11-04T14:19:36.317Z,86.25
2018-11-04T14:22:05.177Z,85.97
2018-11-04T14:24:33.769Z,86.30
2018-11-04T14:27:02.448Z,85.62
2018-11-04T14:29:31.183Z,85.66
2018-11-04T14:31:59.854Z,85.84
2018-11-04T14:34:28.428Z,85.65
2018-11-04T14:36:57.001Z,85.45
2018-11-04T14:39:25.674Z,84.85
2018-11-04T14:41:54.369Z,85.13
2018-11-04T14:44:23.205Z,85.00
2018-11-04T14:46:51.907Z,84.49
2018-11-04T14:49:20.546Z,84.84
2018-11-04T14:51:49.282Z,84.59
2018-11-04T14:54:17.856Z,84.28
2018-11-04T14:56:46.805Z,84.49
2018-11-04T14:59:15.325Z,85.03
2018-11-04T15:01:43.970Z,85.50
2018-11-04T15:04:12.705Z,85.25
2018-11-04T15:06:41.407Z,85.48
2018-11-04T15:09:10.045Z,86.12
2018-11-04T15:11:39.009Z,86.00
2018-11-04T15:14:07.761Z,86.17
2018-11-04T15:16:36.377Z,86.68
2018-11-04T15:19:05.232Z,85.98
2018-11-04T15:21:34.188Z,85.94
2018-11-04T15:24:02.888Z,86.16
2018-11-04T15:26:31.507Z,87.22
2018-11-04T15:29:00.180Z,87.12
2018-11-04T15:31:28.730Z,87.63
2018-11-04T15:33:57.452Z,87.34
2018-11-04T15:36:26.101Z,87.36
2018-11-04T15:38:54.773Z,87.71
2018-11-04T15:41:23.465Z,87.74
2018-11-04T15:43:52.035Z,87.76
2018-11-04T15:46:20.788Z,87.91
2018-11-04T15:48:49.376Z,88.06
2018-11-04T15:51:18.013Z,88.16
2018-11-04T15:53:46.610Z,87.84
2018-11-04T15:56:15.163Z,87.85
2018-11-04T15:58:43.752Z,87.73
2018-11-04T16:01:14.269Z,87.90
2018-11-04T16:03:43.223Z,88.27
2018-11-04T16:06:11.944Z,87.56
2018-11-04T16:08:40.684Z,87.58
2018-11-04T16:11:09.253Z,88.25
2018-11-04T16:13:37.825Z,88.19
2018-11-04T16:16:06.917Z,88.27
2018-11-04T16:18:35.584Z,88.05
2018-11-04T16:21:04.420Z,88.48
2018-11-04T16:23:33.111Z,88.77
2018-11-04T16:26:01.961Z,89.10
2018-11-04T16:28:30.563Z,88.91
2018-11-04T16:30:59.195Z,88.53
2018-11-04T16:33:27.862Z,88.53
2018-11-04T16:35:56.521Z,88.53
2018-11-04T16:38:25.389Z,88.54
2018-11-04T16:40:56.234Z,88.76
2018-11-04T16:43:24.958Z,88.79
2018-11-04T16:45:53.500Z,88.33
2018-11-04T16:48:22.160Z,88.82
2018-11-04T16:50:51.869Z,89.31
2018-11-04T16:53:20.529Z,88.82
2018-11-04T16:55:49.096Z,88.91
2018-11-04T16:58:17.711Z,89.37
2018-11-04T17:00:46.309Z,89.30
2018-11-04T17:03:14.900Z,89.50
2018-11-04T17:05:43.991Z,89.54
2018-11-04T17:08:12.401Z,89.74
2018-11-04T17:10:40.985Z,89.65
2018-11-04T17:13:09.676Z,89.37
2018-11-04T17:15:38.316Z,89.75
2018-11-04T17:18:06.943Z,90.04
2018-11-04T17:20:35.509Z,89.32
2018-11-04T17:23:04.253Z,89.32
2018-11-04T17:25:32.961Z,89.48
2018-11-04T17:28:01.493Z,89.67
2018-11-04T17:30:30.269Z,89.17
2018-11-04T17:32:59.420Z,89.25
2018-11-04T17:35:28.483Z,90.07
2018-11-04T17:37:57.121Z,90.04
2018-11-04T17:40:25.676Z,89.61
2018-11-04T17:42:54.677Z,90.04
2018-11-04T17:45:23.221Z,90.53
2018-11-04T17:47:52.390Z,90.03
2018-11-04T17:50:21.245Z,90.37
2018-11-04T17:52:49.764Z,90.49
2018-11-04T17:55:18.455Z,90.54
2018-11-04T17:57:47.267Z,90.53
2018-11-04T18:00:17.022Z,90.52
2018-11-04T18:02:45.672Z,90.71
2018-11-04T18:05:14.760Z,90.54
2018-11-04T18:07:44.017Z,90.49
2018-11-04T18:10:13.506Z,90.31
2018-11-04T18:12:42.529Z,90.01
2018-11-04T18:15:12.129Z,90.03
2018-11-04T18:17:40.796Z,89.69
2018-11-04T18:20:10.701Z,90.23
2018-11-04T18:22:39.404Z,89.98
2018-11-04T18:25:09.608Z,90.10
2018-11-04T18:27:38.332Z,89.49
2018-11-04T18:30:09.690Z,90.17
2018-11-04T18:32:38.349Z,89.47
2018-11-04T18:35:06.960Z,89.66
2018-11-04T18:37:35.735Z,89.93
2018-11-04T18:40:05.035Z,90.61
2018-11-04T18:42:33.806Z,91.20
2018-11-04T18:45:02.345Z,91.11
2018-11-04T18:47:39.196Z,91.27
2018-11-04T18:50:09.295Z,91.93
2018-11-04T18:52:38.359Z,91.62
2018-11-04T18:55:08.371Z,91.16
2018-11-04T18:57:37.209Z,91.57
2018-11-04T19:00:07.809Z,91.92
2018-11-04T19:02:36.403Z,91.47
2018-11-04T19:05:05.849Z,91.77
2018-11-04T19:07:34.440Z,91.65
2018-11-04T19:10:03.177Z,91.96
2018-11-04T19:12:31.757Z,91.01
2018-11-04T19:15:08.017Z,91.05
2018-11-04T19:17:36.839Z,91.31
2018-11-04T19:20:06.841Z,91.47
2018-11-04T19:22:35.540Z,91.63
2018-11-04T19:25:04.257Z,92.14
2018-11-04T19:27:32.833Z,91.76
2018-11-04T19:30:01.451Z,91.36
2018-11-04T19:32:30.423Z,90.69
2018-11-04T19:34:59.057Z,91.42
2018-11-04T19:37:28.970Z,90.74
2018-11-04T19:39:57.772Z,90.18
2018-11-04T19:42:26.539Z,89.71
2018-11-04T19:44:55.687Z,90.86
2018-11-04T19:47:24.345Z,91.26
2018-11-04T19:49:53.438Z,91.06
2018-11-04T19:52:22.092Z,91.08
2018-11-04T19:54:51.167Z,91.48
2018-11-04T19:57:22.631Z,91.61
2018-11-04T19:59:51.268Z,91.95
2018-11-04T20:02:20.185Z,92.35
2018-11-04T20:04:48.774Z,91.76
2018-11-04T20:07:17.524Z,92.41
2018-11-04T20:09:46.198Z,92.17
2018-11-04T20:12:20.220Z,92.24
2018-11-04T20:14:48.961Z,92.36
2018-11-04T20:17:18.877Z,92.34
2018-11-04T20:19:52.843Z,92.39
2018-11-04T20:22:22.020Z,92.37
2018-11-04T20:24:55.992Z,92.20
2018-11-04T20:27:24.665Z,92.58
2018-11-04T20:29:53.293Z,92.10
2018-11-04T20:32:27.113Z,92.33
2018-11-04T20:34:55.654Z,92.21
2018-11-04T20:37:24.500Z,92.03
2018-11-04T20:39:58.317Z,92.45
2018-11-04T20:42:27.276Z,92.20
2018-11-04T20:44:55.964Z,92.31
2018-11-04T20:47:29.701Z,91.93
2018-11-04T20:50:03.641Z,92.38
2018-11-04T20:52:32.306Z,92.47
2018-11-04T20:55:00.948Z,92.04
2018-11-04T20:57:34.745Z,92.42
2018-11-04T21:00:03.389Z,91.78
2018-11-04T21:02:32.065Z,91.81
2018-11-04T21:05:00.769Z,91.73
2018-11-04T21:07:29.366Z,92.26
2018-11-04T21:09:58.110Z,92.11
2018-11-04T21:12:26.909Z,92.40
2018-11-04T21:14:55.485Z,91.90
2018-11-04T21:17:24.033Z,92.23
2018-11-04T21:19:52.885Z,92.10
2018-11-04T21:22:21.498Z,92.72
2018-11-04T21:24:50.019Z,92.29
2018-11-04T21:27:18.652Z,92.19
2018-11-04T21:29:47.718Z,92.13
2018-11-04T21:32:15.989Z,92.43
2018-11-04T21:34:44.763Z,92.38
2018-11-04T21:37:13.493Z,92.62
2018-11-04T21:39:42.057Z,92.59
2018-11-04T21:42:10.658Z,91.52
2018-11-04T21:44:39.294Z,91.67
2018-11-04T21:47:07.868Z,91.26
2018-11-04T21:49:36.655Z,90.62
2018-11-04T21:52:05.461Z,91.28
2018-11-04T21:54:34.001Z,92.09
2018-11-04T21:57:02.665Z,91.78
2018-11-04T21:59:31.356Z,91.99
2018-11-04T22:01:59.888Z,91.98
2018-11-04T22:04:28.663Z,91.34
2018-11-04T22:06:57.228Z,91.98
2018-11-04T22:09:25.808Z,91.85
2018-11-04T22:11:54.741Z,92.84
2018-11-04T22:14:23.320Z,92.38
2018-11-04T22:16:51.888Z,92.50
2018-11-04T22:19:20.665Z,92.78
2018-11-04T22:21:49.304Z,92.85
2018-11-04T22:24:17.924Z,92.19
2018-11-04T22:26:46.561Z,92.12
2018-11-04T22:29:15.260Z,92.04
2018-11-04T22:31:43.816Z,92.52
2018-11-04T22:34:12.479Z,92.79
2018-11-04T22:36:41.402Z,92.18
2018-11-04T22:39:10.454Z,92.30
2018-11-04T22:41:39.140Z,91.91
2018-11-04T22:44:08.157Z,92.08
2018-11-04T22:46:36.797Z,92.15
2018-11-04T22:49:05.649Z,92.38
2018-11-04T22:51:34.244Z,92.04
2018-11-04T22:54:03.151Z,92.06
2018-11-04T22:56:31.821Z,91.61
2018-11-04T22:59:00.372Z,92.15
2018-11-04T23:01:28.982Z,91.83
2018-11-04T23:03:57.828Z,91.25
2018-11-04T23:06:27.701Z,91.57
2018-11-04T23:08:56.337Z,91.71
2018-11-04T23:11:25.012Z,91.81
2018-11-04T23:13:53.645Z,91.18
2018-11-04T23:16:22.417Z,91.11
2018-11-04T23:18:51.276Z,91.55
2018-11-04T23:21:19.833Z,91.89
2018-11-04T23:23:48.440Z,91.07
2018-11-04T23:26:17.027Z,91.87
2018-11-04T23:28:45.617Z,91.69
2018-11-04T23:31:14.335Z,91.68
2018-11-04T23:33:42.894Z,91.70
2018-11-04T23:36:11.429Z,91.14
2018-11-04T23:38:40.001Z,91.57
2018-11-04T23:41:08.534Z,91.49
2018-11-04T23:43:37.121Z,91.48
2018-11-04T23:46:06.512Z,92.21
2018-11-04T23:48:35.242Z,92.07
2018-11-04T23:51:03.871Z,91.81
2018-11-04T23:53:32.496Z,91.91
2018-11-04T23:56:01.057Z,92.05
2018-11-04T23:58:29.653Z,91.91
